Chicago, Illinois
Traffic Map
Current Weather Conditions
Chicago, Illinois
Overcast
Overcast
-2°
Feels Like: -5°
Wind Chill: -5° Ceiling: 2100
Heat Index: -2° Visibility: 9mi
Dew Point: -7° Wind: 6mph
Humidity: 69% Direction: 100° (E)
Pressure: 30.12in Gusts: 0mph
Raw Report DataKMDW 262253Z 10005KT 9SM OVC021 M02/M07 A3012 RMK AO2 SLP215 T10171067
Traffic Incident Summary
Active as of:
Severity:
Category:
InformationThere was an issue retrieving the traffic information for this location. Please try a different location or try again shortly.
Advertisements
Track Severe Weather on mobile